Aeroporto :
LOGIN :

Iscrizione | Disclaimer

   EN    FR    IT 

 










Sommario :    VFR   VFR Marginale   IFR   IFR Intensivo   IFR Molto Intensivo
Visibilità : 
Base nubi : 
>= 8 km
>= 3000ft
5 / 8 km
1000 / 3000 ft
1500m / 5 km
500 / 1000 ft
800 / 1500m
200 / 500 ft
< 800m
< 200 ft
Simboli :   Temporali  Nebbia  Neve Forte  Precipitazioni Forti  Vento > 20 kt
SIGMETs :   Varie  Temporali  Ghiacco  Turbolenza  Onda orograficha  Ceneri Vulcaniche







- Altitudine del aeroporto : 123 ft
- Codice IATA : BLQ


LIPE - Bologna Guglielmo Marconi

ULTIMO METAR :
  • 161320Z 33005KT 280V020 CAVOK 30/16 Q1013

METARs OBSOLETI :
  • 161250Z 32006KT 220V010 CAVOK 30/16 Q1013
  • 161220Z 32006KT 250V010 CAVOK 29/15 Q1013
  • 161150Z 32006KT 250V010 CAVOK 29/16 Q1013
  • 161120Z 28005KT 240V340 CAVOK 28/17 Q1014
  • 161050Z 30006KT 220V360 CAVOK 28/16 Q1014

TAF TAF LIPE
Valido dal 16 a 12 ore il 17 a 12 ore UTC


161100Z 1612/1712 VRB05KT CAVOK
Nessun NOTAM noto per questo aeroporto.



MetMap, La meteo Aeronautica in un colpo d'occhio ! - Copyright ORBIFLY Dicembre 2007 - Disclaimer

ORBIFLY MET'MAP TEAM :

Programmazione e sviluppo : Alexandra Zaïnal
Concezione e sviluppo : Baudouin d'Aumeries
Co-Programmazione e sviluppo : Marc-Olivier Méhu
Supporto tecnico e logistico : Manuel Goepfert
Aiuto per la traduzione : Arnaldo La Scala

Contatto : metmap@orbifly.com




FONTI E CREDITI :

   NOAA